Osseo, WI (54758)

2:33 AM CDT on April 27, 2015 (GMT -0500)
KWIOSSEO2 | | Change Station
CLOSE
Current Station
Personal Weather Station
Location: Osseo, WI
Elevation: 997 ft
Nearby Weather Stations

Elev 997 ft 44.59 °N, 91.27 °W | Updated 4 seconds ago

Clear
Clear
36.7 °F
Feels Like 37 °F
N
1.0
Wind Variable Wind from NE
Gusts 2.0 mph

Today
High -- | Low -- °F
--% Chance of Precip.
Yesterday
High -- | Low -- °F
Precip. -- in
6:01 AM 8:04 PM
Waxing Gibbous, 62% visible
Pressure 30.17 in
Visibility 10.0 miles
Clouds Clear
Windchill 37 °F
Dew Point 28 °F
Humidity 69%
Rainfall -999.00 in
Snow Depth Not available.
UV 0 out of 12
Pollen 10.40 out of 12
Air Quality Not available.
Flu Activity Local Activity
METAR KEAU 270656Z AUTO 02005KT 10SM CLR 04/M05 A3015 RMK AO2 SLP214 T00441050 $

More Conditions Fewer Conditions

Pressure 30.17 in
Visibility 10.0 miles
Clouds Clear
Windchill 37 °F
Dew Point 28 °F
Humidity 69%
Rainfall -999.00 in
Snow Depth Not available.
UV 0 out of 12
Pollen 10.40 out of 12
Air Quality Not available.
Flu Activity Local Activity
METAR KEAU 270656Z AUTO 02005KT 10SM CLR 04/M05 A3015 RMK AO2 SLP214 T00441050 $

More Conditions Fewer Conditions

10-Day Weather Forecast

Almanac

Astronomy

Apr. 27, 2015 Rise Set
Actual Time
Civil Twilight
Nautical Twilight
Astronomical Twilight
Moon
Length of Visible Light
Length of Day
Tomorrow will be .
, % of the Moon is Illuminated

Today's Extremes

State Highs State Lows

Community

WunderPhotos

Upload Photos

1,817,276 photos uploaded!

WunderBlogs® & News

Nearby

Air Quality

  Air Quality AQ Index Pollutant
Not available.

Snow Depth

Station Depth Elevation

Earthquake Activity

City Distance Mag. Time & Date
Minimum magnitude displayed is 2.5.

Coastal Water Temperatures

Place Temperature

Stations

Nearby Weather Stations

Station Location Temp. Windchill Dew Point Humidity Wind Precip. Elev Updated Type